createdAt,value
2023-07-07T00:00:10.315Z,0.00
2023-07-07T00:01:10.307Z,0.00
2023-07-07T00:02:10.322Z,0.00
2023-07-07T00:03:10.311Z,0.00
2023-07-07T00:04:10.392Z,0.00
2023-07-07T00:05:10.263Z,0.00
2023-07-07T00:06:10.314Z,0.00
2023-07-07T00:07:10.247Z,0.00
2023-07-07T00:08:10.224Z,0.00
2023-07-07T00:09:10.283Z,0.00
2023-07-07T00:10:10.263Z,0.00
2023-07-07T00:11:10.179Z,0.00
2023-07-07T00:12:10.170Z,0.00
2023-07-07T00:13:10.160Z,0.00
2023-07-07T00:14:10.155Z,0.00
2023-07-07T00:15:10.211Z,0.00
2023-07-07T00:16:10.183Z,0.00
2023-07-07T00:17:10.222Z,0.00
2023-07-07T00:18:10.108Z,0.00
2023-07-07T00:19:10.086Z,0.00
2023-07-07T00:20:10.060Z,0.00
2023-07-07T00:21:10.161Z,0.00
2023-07-07T00:22:10.135Z,0.00
2023-07-07T00:23:10.032Z,0.00
2023-07-07T00:24:10.058Z,0.00
2023-07-07T00:25:10.064Z,0.00
2023-07-07T00:26:10.104Z,0.00
2023-07-07T00:27:10.010Z,0.00
2023-07-07T00:28:10.004Z,0.00
2023-07-07T00:29:09.979Z,0.00
2023-07-07T00:30:09.981Z,0.00
2023-07-07T00:31:09.974Z,0.00
2023-07-07T00:32:10.022Z,0.00
2023-07-07T00:33:10.038Z,0.00
2023-07-07T00:34:10.042Z,0.00
2023-07-07T00:35:09.914Z,0.00
2023-07-07T00:36:09.982Z,0.00
2023-07-07T00:37:09.984Z,0.00
2023-07-07T00:38:09.908Z,0.00
2023-07-07T00:39:09.874Z,0.00
2023-07-07T00:40:09.893Z,0.00
2023-07-07T00:41:09.929Z,0.00
2023-07-07T00:42:09.855Z,0.00
2023-07-07T00:43:09.837Z,0.00
2023-07-07T00:44:09.817Z,0.00
2023-07-07T00:45:09.838Z,0.00
2023-07-07T00:46:09.929Z,0.00
2023-07-07T00:47:09.787Z,0.00
2023-07-07T00:48:09.916Z,0.00
2023-07-07T00:49:09.808Z,0.00
2023-07-07T00:50:09.758Z,0.00
2023-07-07T00:51:09.755Z,0.00
2023-07-07T00:52:09.839Z,0.00
2023-07-07T00:53:09.721Z,0.00
2023-07-07T00:54:09.794Z,0.00
2023-07-07T00:55:09.729Z,0.00
2023-07-07T00:56:09.693Z,0.00
2023-07-07T00:57:09.696Z,0.00
2023-07-07T00:58:09.715Z,0.00
2023-07-07T00:59:09.662Z,0.00
2023-07-07T01:00:09.742Z,0.00
2023-07-07T01:01:09.693Z,0.00
2023-07-07T01:02:09.813Z,0.00
2023-07-07T01:03:09.718Z,0.00
2023-07-07T01:04:09.703Z,0.00
2023-07-07T01:05:09.709Z,0.00
2023-07-07T01:06:09.631Z,0.00
2023-07-07T01:07:09.605Z,0.00
2023-07-07T01:08:09.666Z,0.00
2023-07-07T01:09:09.605Z,0.00
2023-07-07T01:10:09.566Z,0.00
2023-07-07T01:11:09.552Z,0.00
2023-07-07T01:12:09.612Z,0.00
2023-07-07T01:13:09.542Z,0.00
2023-07-07T01:14:09.591Z,0.00
2023-07-07T01:15:09.593Z,0.00
2023-07-07T01:16:09.541Z,0.00
2023-07-07T01:17:09.513Z,0.00
2023-07-07T01:18:09.570Z,0.00
2023-07-07T01:19:09.488Z,0.00
2023-07-07T01:20:09.469Z,0.00
2023-07-07T01:21:09.463Z,0.00
2023-07-07T01:22:09.540Z,0.00
2023-07-07T01:23:09.508Z,0.00
2023-07-07T01:24:09.506Z,0.00
2023-07-07T01:25:09.407Z,0.00
2023-07-07T01:26:09.413Z,0.00
2023-07-07T01:27:09.395Z,0.00
2023-07-07T01:28:09.386Z,0.00
2023-07-07T01:29:09.468Z,0.00
2023-07-07T01:30:09.418Z,0.00
2023-07-07T01:31:09.365Z,0.00
2023-07-07T01:32:09.353Z,0.00
2023-07-07T01:33:09.424Z,0.00
2023-07-07T01:34:09.322Z,0.00
2023-07-07T01:35:09.395Z,0.00
2023-07-07T01:36:09.317Z,0.00
2023-07-07T01:37:09.315Z,0.00
2023-07-07T01:38:09.290Z,0.00
2023-07-07T01:39:09.363Z,0.00
2023-07-07T01:40:09.281Z,0.00
2023-07-07T01:41:09.239Z,0.00
2023-07-07T01:42:09.240Z,0.00
2023-07-07T01:43:09.246Z,0.00
2023-07-07T01:44:09.245Z,0.00
2023-07-07T01:45:09.315Z,0.00
2023-07-07T01:46:09.327Z,0.00
2023-07-07T01:47:09.204Z,0.00
2023-07-07T01:48:09.205Z,0.00
2023-07-07T01:49:09.173Z,0.00
2023-07-07T01:50:09.170Z,0.00
2023-07-07T01:51:09.182Z,0.00
2023-07-07T01:52:09.237Z,0.00
2023-07-07T01:53:09.158Z,0.00
2023-07-07T01:54:09.145Z,0.00
2023-07-07T01:55:09.131Z,0.00
2023-07-07T01:56:09.195Z,0.00
2023-07-07T01:57:09.095Z,0.00
2023-07-07T01:58:09.066Z,0.00
2023-07-07T01:59:09.087Z,0.00
2023-07-07T02:00:09.081Z,0.00
2023-07-07T02:01:09.167Z,0.00
2023-07-07T02:02:09.065Z,0.00
2023-07-07T02:03:09.118Z,0.00
2023-07-07T02:04:09.090Z,0.00
2023-07-07T02:05:09.059Z,0.00
2023-07-07T02:06:09.008Z,0.00
2023-07-07T02:07:09.015Z,0.00
2023-07-07T02:08:09.070Z,0.00
2023-07-07T02:09:08.960Z,0.00
2023-07-07T02:10:09.054Z,0.00
2023-07-07T02:11:09.067Z,0.00
2023-07-07T02:12:08.958Z,0.00
2023-07-07T02:13:08.947Z,0.00
2023-07-07T02:14:08.988Z,0.00
2023-07-07T02:15:08.981Z,0.00
2023-07-07T02:16:08.983Z,0.00
2023-07-07T02:17:08.980Z,0.00
2023-07-07T02:18:08.956Z,0.00
2023-07-07T02:19:08.869Z,0.00
2023-07-07T02:20:08.895Z,0.00
2023-07-07T02:21:08.918Z,0.00
2023-07-07T02:22:08.852Z,0.00
2023-07-07T02:23:08.849Z,0.00
2023-07-07T02:24:08.842Z,0.00
2023-07-07T02:25:08.839Z,0.00
2023-07-07T02:26:08.802Z,0.00
2023-07-07T02:27:08.880Z,0.00
2023-07-07T02:28:08.766Z,0.00
2023-07-07T02:29:08.760Z,0.00
2023-07-07T02:30:08.782Z,0.00
2023-07-07T02:31:08.772Z,0.00
2023-07-07T02:32:08.805Z,0.00
2023-07-07T02:33:08.809Z,0.00
2023-07-07T02:34:08.738Z,0.00
2023-07-07T02:35:08.739Z,0.00
2023-07-07T02:36:08.702Z,0.00
2023-07-07T02:37:08.748Z,0.00
2023-07-07T02:38:08.636Z,1.00
2023-07-07T02:39:08.761Z,0.00
2023-07-07T02:40:08.662Z,0.00
2023-07-07T02:41:08.610Z,1.00
2023-07-07T02:42:08.592Z,1.00
2023-07-07T02:43:08.666Z,1.00
2023-07-07T02:44:08.576Z,1.00
2023-07-07T02:45:08.620Z,0.00
2023-07-07T02:46:08.601Z,0.00
2023-07-07T02:47:08.629Z,2.00
2023-07-07T02:48:08.789Z,1.00
2023-07-07T02:49:08.596Z,1.00
2023-07-07T02:50:08.554Z,1.00
2023-07-07T02:51:08.546Z,0.00
2023-07-07T02:52:08.497Z,2.00
2023-07-07T02:53:08.468Z,1.00
2023-07-07T02:54:08.474Z,4.00
2023-07-07T02:55:08.533Z,3.00
2023-07-07T02:56:08.449Z,7.00
2023-07-07T02:57:08.438Z,6.00
2023-07-07T02:58:08.407Z,4.00
2023-07-07T02:59:08.494Z,3.00
2023-07-07T03:00:08.385Z,3.00
2023-07-07T03:01:08.414Z,3.00
2023-07-07T03:02:08.377Z,1.00
2023-07-07T03:03:08.578Z,2.00
2023-07-07T03:04:08.365Z,5.00
2023-07-07T03:05:08.450Z,6.00
2023-07-07T03:06:08.352Z,9.00
2023-07-07T03:07:08.419Z,7.00
2023-07-07T03:08:08.304Z,10.00
2023-07-07T03:09:08.308Z,11.00
2023-07-07T03:10:08.397Z,10.00
2023-07-07T03:11:08.378Z,9.00
2023-07-07T03:12:08.341Z,11.00
2023-07-07T03:13:08.257Z,12.00
2023-07-07T03:14:08.311Z,13.00
2023-07-07T03:15:08.234Z,17.00
2023-07-07T03:16:08.350Z,19.00
2023-07-07T03:17:08.264Z,18.00
2023-07-07T03:18:08.188Z,19.00
2023-07-07T03:19:08.190Z,23.00
2023-07-07T03:20:08.200Z,26.00
2023-07-07T03:21:08.252Z,24.00
2023-07-07T03:22:08.156Z,26.00
2023-07-07T03:23:08.156Z,24.00
2023-07-07T03:24:08.164Z,25.00
2023-07-07T03:25:08.136Z,32.00
2023-07-07T03:26:08.112Z,33.00
2023-07-07T03:27:08.196Z,34.00
2023-07-07T03:28:08.091Z,39.00
2023-07-07T03:29:08.092Z,36.00
2023-07-07T03:30:08.092Z,46.00
2023-07-07T03:31:08.090Z,45.00
2023-07-07T03:32:08.069Z,41.00
2023-07-07T03:33:08.157Z,45.00
2023-07-07T03:34:08.043Z,42.00
2023-07-07T03:35:08.006Z,53.00
2023-07-07T03:36:08.029Z,56.00
2023-07-07T03:37:08.003Z,58.00
2023-07-07T03:38:07.986Z,59.00
2023-07-07T03:39:08.048Z,65.00
2023-07-07T03:40:08.000Z,62.00
2023-07-07T03:41:07.989Z,68.00
2023-07-07T03:42:07.977Z,69.00
2023-07-07T03:43:08.017Z,76.00
2023-07-07T03:44:07.999Z,78.00
2023-07-07T03:45:07.935Z,81.00
2023-07-07T03:46:07.950Z,85.00
2023-07-07T03:47:07.925Z,53.00
2023-07-07T03:48:08.035Z,65.00
2023-07-07T03:49:07.897Z,93.00
2023-07-07T03:50:07.959Z,122.00
2023-07-07T03:51:07.879Z,153.00
2023-07-07T03:52:07.840Z,206.00
2023-07-07T03:53:07.846Z,221.00
2023-07-07T03:54:07.854Z,277.00
2023-07-07T03:55:07.838Z,233.00
2023-07-07T03:56:07.888Z,223.00
2023-07-07T03:57:07.832Z,268.00
2023-07-07T03:58:07.783Z,338.00
2023-07-07T03:59:07.791Z,353.00
2023-07-07T04:00:07.775Z,382.00
2023-07-07T04:01:07.852Z,419.00
2023-07-07T04:02:07.739Z,416.00
2023-07-07T04:03:07.839Z,421.00
2023-07-07T04:04:07.883Z,451.00
2023-07-07T04:05:07.970Z,471.00
2023-07-07T04:06:07.788Z,483.00
2023-07-07T04:07:07.700Z,508.00
2023-07-07T04:08:07.717Z,537.00
2023-07-07T04:09:07.689Z,562.00
2023-07-07T04:10:07.754Z,587.00
2023-07-07T04:11:07.760Z,617.00
2023-07-07T04:12:07.656Z,647.00
2023-07-07T04:13:07.642Z,673.00
2023-07-07T04:14:07.794Z,693.00
2023-07-07T04:15:07.692Z,708.00
2023-07-07T04:16:07.655Z,722.00
2023-07-07T04:17:07.720Z,753.00
2023-07-07T04:18:07.687Z,770.00
2023-07-07T04:19:07.573Z,793.00
2023-07-07T04:20:07.604Z,817.00
2023-07-07T04:21:07.565Z,848.00
2023-07-07T04:22:07.544Z,863.00
2023-07-07T04:23:07.645Z,888.00
2023-07-07T04:24:07.539Z,899.00
2023-07-07T04:25:07.494Z,929.00
2023-07-07T04:26:07.569Z,946.00
2023-07-07T04:27:07.556Z,970.00
2023-07-07T04:28:07.460Z,993.00
2023-07-07T04:29:07.483Z,998.00
2023-07-07T04:30:08.451Z,1009.00
2023-07-07T04:31:07.478Z,1042.00
2023-07-07T04:32:07.525Z,1066.00
2023-07-07T04:33:07.411Z,1071.00
2023-07-07T04:34:07.395Z,1094.00
2023-07-07T04:35:07.389Z,1119.00
2023-07-07T04:36:07.388Z,1132.00
2023-07-07T04:37:07.466Z,1159.00
2023-07-07T04:38:07.398Z,1193.00
2023-07-07T04:39:07.360Z,1210.00
2023-07-07T04:40:07.367Z,1147.00
2023-07-07T04:41:07.382Z,1054.00
2023-07-07T04:42:07.404Z,961.00
2023-07-07T04:43:07.321Z,866.00
2023-07-07T04:44:07.307Z,828.00
2023-07-07T04:45:07.294Z,899.00
2023-07-07T04:46:07.348Z,1007.00
2023-07-07T04:47:07.387Z,1129.00
2023-07-07T04:48:07.307Z,1257.00
2023-07-07T04:49:07.256Z,1376.00
2023-07-07T04:50:07.230Z,1430.00
2023-07-07T04:51:07.265Z,1446.00
2023-07-07T04:52:07.209Z,1479.00
2023-07-07T04:53:07.305Z,1514.00
2023-07-07T04:54:07.201Z,1538.00
2023-07-07T04:55:07.222Z,1551.00
2023-07-07T04:56:07.193Z,1583.00
2023-07-07T04:57:07.251Z,1589.00
2023-07-07T04:58:07.167Z,1609.00
2023-07-07T04:59:07.140Z,1637.00
2023-07-07T05:00:07.136Z,1654.00
2023-07-07T05:01:07.193Z,1677.00
2023-07-07T05:02:07.212Z,1702.00
2023-07-07T05:03:07.104Z,1703.00
2023-07-07T05:04:07.220Z,1701.00
2023-07-07T05:05:07.184Z,1681.00
2023-07-07T05:06:07.082Z,1683.00
2023-07-07T05:07:07.057Z,1721.00
2023-07-07T05:08:09.429Z,1686.00
2023-07-07T05:09:07.061Z,1679.00
2023-07-07T05:10:07.116Z,1650.00
2023-07-07T05:11:07.094Z,1709.00
2023-07-07T05:12:06.991Z,1695.00
2023-07-07T05:13:07.050Z,1693.00
2023-07-07T05:14:07.161Z,1685.00
2023-07-07T05:15:07.000Z,1661.00
2023-07-07T05:16:07.090Z,1646.00
2023-07-07T05:17:06.974Z,1653.00
2023-07-07T05:18:06.997Z,1537.00
2023-07-07T05:19:06.944Z,1532.00
2023-07-07T05:20:06.963Z,1395.00
2023-07-07T05:21:07.399Z,1324.00
2023-07-07T05:22:06.913Z,1083.00
2023-07-07T05:23:06.923Z,1232.00
2023-07-07T05:24:06.893Z,1288.00
2023-07-07T05:25:06.891Z,1447.00
2023-07-07T05:26:06.869Z,1511.00
2023-07-07T05:27:06.940Z,1523.00
2023-07-07T05:28:06.852Z,1489.00
2023-07-07T05:29:06.869Z,1446.00
2023-07-07T05:30:06.814Z,1359.00
2023-07-07T05:31:06.822Z,1260.00
2023-07-07T05:32:06.884Z,1190.00
2023-07-07T05:33:06.892Z,1161.00
2023-07-07T05:34:06.766Z,1119.00
2023-07-07T05:35:06.790Z,1070.00
2023-07-07T05:36:06.765Z,1012.00
2023-07-07T05:37:06.732Z,957.00
2023-07-07T05:38:06.825Z,915.00
2023-07-07T05:39:06.722Z,884.00
2023-07-07T05:40:06.727Z,884.00
2023-07-07T05:41:06.693Z,901.00
2023-07-07T05:42:06.688Z,934.00
2023-07-07T05:43:06.704Z,976.00
2023-07-07T05:44:06.762Z,990.00
2023-07-07T05:45:06.763Z,866.00
2023-07-07T05:46:06.771Z,883.00
2023-07-07T05:47:06.646Z,932.00
2023-07-07T05:48:06.786Z,955.00
2023-07-07T05:49:06.694Z,974.00
2023-07-07T05:50:06.549Z,959.00
2023-07-07T05:51:06.603Z,937.00
2023-07-07T05:52:06.599Z,949.00
2023-07-07T05:53:06.594Z,996.00
2023-07-07T05:54:06.662Z,1063.00
2023-07-07T05:55:06.553Z,1122.00
2023-07-07T05:56:06.718Z,1171.00
2023-07-07T05:57:06.648Z,1210.00
2023-07-07T05:58:06.574Z,1258.00
2023-07-07T05:59:06.586Z,1321.00
2023-07-07T06:00:06.517Z,1395.00
2023-07-07T06:01:06.569Z,1473.00
2023-07-07T06:02:06.588Z,1545.00
2023-07-07T06:03:06.582Z,1592.00
2023-07-07T06:04:06.545Z,1644.00
2023-07-07T06:05:06.552Z,1676.00
2023-07-07T06:06:06.497Z,1697.00
2023-07-07T06:07:06.462Z,1694.00
2023-07-07T06:08:06.549Z,1660.00
2023-07-07T06:09:06.465Z,1611.00
2023-07-07T06:10:06.408Z,1563.00
2023-07-07T06:11:06.413Z,1516.00
2023-07-07T06:12:06.383Z,1459.00
2023-07-07T06:13:06.453Z,1350.00
2023-07-07T06:14:06.405Z,1248.00
2023-07-07T06:15:06.351Z,1194.00
2023-07-07T06:16:06.441Z,1129.00
2023-07-07T06:17:06.334Z,1073.00
2023-07-07T06:18:06.449Z,1037.00
2023-07-07T06:19:06.320Z,1020.00
2023-07-07T06:20:06.328Z,1037.00
2023-07-07T06:21:06.320Z,1058.00
2023-07-07T06:22:06.309Z,1062.00
2023-07-07T06:23:06.289Z,1043.00
2023-07-07T06:24:06.352Z,1019.00
2023-07-07T06:25:06.274Z,987.00
2023-07-07T06:26:06.262Z,960.00
2023-07-07T06:27:06.232Z,930.00
2023-07-07T06:28:06.249Z,916.00
2023-07-07T06:29:06.310Z,906.00
2023-07-07T06:30:06.198Z,894.00
2023-07-07T06:31:06.291Z,888.00
2023-07-07T06:32:06.179Z,885.00
2023-07-07T06:33:06.183Z,883.00
2023-07-07T06:34:06.237Z,881.00
2023-07-07T06:35:06.177Z,871.00
2023-07-07T06:36:06.139Z,865.00
2023-07-07T06:37:06.128Z,862.00
2023-07-07T06:38:06.127Z,857.00
2023-07-07T06:39:06.286Z,852.00
2023-07-07T06:40:06.084Z,850.00
2023-07-07T06:41:06.187Z,851.00
2023-07-07T06:42:06.069Z,850.00
2023-07-07T06:43:06.049Z,851.00
2023-07-07T06:44:06.066Z,856.00
2023-07-07T06:45:06.069Z,866.00
2023-07-07T06:46:06.133Z,871.00
2023-07-07T06:47:06.074Z,874.00
2023-07-07T06:48:06.136Z,877.00
2023-07-07T06:49:06.021Z,879.00
2023-07-07T06:50:05.997Z,883.00
2023-07-07T06:51:06.053Z,887.00
2023-07-07T06:52:06.026Z,897.00
2023-07-07T06:53:05.957Z,903.00
2023-07-07T06:54:05.945Z,911.00
2023-07-07T06:55:05.973Z,916.00
2023-07-07T06:56:06.029Z,921.00
2023-07-07T06:57:05.945Z,936.00
2023-07-07T06:58:05.905Z,938.00
2023-07-07T06:59:06.012Z,947.00
2023-07-07T07:00:05.894Z,951.00
2023-07-07T07:01:06.019Z,956.00
2023-07-07T07:02:05.939Z,994.00
2023-07-07T07:03:05.975Z,954.00
2023-07-07T07:04:06.048Z,853.00
2023-07-07T07:05:05.847Z,948.00
2023-07-07T07:06:05.846Z,960.00
2023-07-07T07:07:05.859Z,968.00
2023-07-07T07:08:05.897Z,971.00
2023-07-07T07:09:05.869Z,969.00
2023-07-07T07:10:05.800Z,975.00
2023-07-07T07:11:05.777Z,981.00
2023-07-07T07:12:05.756Z,982.00
2023-07-07T07:13:05.854Z,988.00
2023-07-07T07:14:05.839Z,989.00
2023-07-07T07:15:05.778Z,990.00
2023-07-07T07:16:05.744Z,989.00
2023-07-07T07:17:05.791Z,987.00
2023-07-07T07:18:05.912Z,991.00
2023-07-07T07:19:05.709Z,996.00
2023-07-07T07:20:05.778Z,999.00
2023-07-07T07:21:05.700Z,1000.00
2023-07-07T07:22:05.693Z,1003.00
2023-07-07T07:23:05.678Z,1007.00
2023-07-07T07:24:05.760Z,994.00
2023-07-07T07:25:05.675Z,972.00
2023-07-07T07:26:05.651Z,961.00
2023-07-07T07:27:05.640Z,958.00
2023-07-07T07:28:05.709Z,960.00
2023-07-07T07:29:05.609Z,962.00
2023-07-07T07:30:05.619Z,958.00
2023-07-07T07:31:05.615Z,967.00
2023-07-07T07:32:05.589Z,973.00
2023-07-07T07:33:05.584Z,985.00
2023-07-07T07:34:05.631Z,991.00
2023-07-07T07:35:05.588Z,1007.00
2023-07-07T07:36:05.548Z,1020.00
2023-07-07T07:37:05.519Z,1039.00
2023-07-07T07:38:05.533Z,1054.00
2023-07-07T07:39:05.600Z,1061.00
2023-07-07T07:40:05.495Z,1091.00
2023-07-07T07:41:05.550Z,1114.00
2023-07-07T07:42:05.473Z,1141.00
2023-07-07T07:43:05.483Z,1174.00
2023-07-07T07:44:05.444Z,1209.00
2023-07-07T07:45:05.478Z,1243.00
2023-07-07T07:46:05.520Z,1282.00
2023-07-07T07:47:05.474Z,1322.00
2023-07-07T07:48:05.449Z,1353.00
2023-07-07T07:49:05.404Z,1402.00
2023-07-07T07:50:05.399Z,1469.00
2023-07-07T07:51:13.639Z,1531.00
2023-07-07T07:52:05.374Z,1592.00
2023-07-07T07:53:05.438Z,1659.00
2023-07-07T07:54:05.342Z,1738.00
2023-07-07T07:55:05.356Z,1806.00
2023-07-07T07:56:05.424Z,1894.00
2023-07-07T07:57:05.408Z,1977.00
2023-07-07T07:58:05.322Z,2064.00
2023-07-07T07:59:07.279Z,2147.00
2023-07-07T08:00:05.292Z,2228.00
2023-07-07T08:01:05.290Z,2309.00
2023-07-07T08:02:05.394Z,2391.00
2023-07-07T08:03:05.425Z,2468.00
2023-07-07T08:04:05.317Z,2533.00
2023-07-07T08:05:05.261Z,2608.00
2023-07-07T08:06:05.236Z,2708.00
2023-07-07T08:07:05.311Z,2806.00
2023-07-07T08:08:05.222Z,2935.00
2023-07-07T08:09:05.227Z,3063.00
2023-07-07T08:10:05.320Z,3197.00
2023-07-07T08:11:11.060Z,3313.00
2023-07-07T08:12:05.177Z,3452.00
2023-07-07T08:13:05.243Z,3573.00
2023-07-07T08:14:05.205Z,3670.00
2023-07-07T08:15:05.200Z,3772.00
2023-07-07T08:16:05.143Z,3896.00
2023-07-07T08:17:05.279Z,4037.00
2023-07-07T08:18:05.247Z,4202.00
2023-07-07T08:20:05.085Z,4568.00
2023-07-07T08:21:05.087Z,4780.00
2023-07-07T08:22:05.071Z,5068.00
2023-07-07T08:23:05.142Z,5654.00
2023-07-07T08:24:05.123Z,6388.00
2023-07-07T08:25:07.516Z,6862.00
2023-07-07T08:28:08.303Z,7441.00
2023-07-07T08:29:05.028Z,7598.00
2023-07-07T08:30:05.099Z,7780.00
2023-07-07T08:31:05.212Z,7874.00
2023-07-07T08:32:04.961Z,8053.00
2023-07-07T08:33:04.961Z,8246.00
2023-07-07T08:34:04.968Z,8372.00
2023-07-07T08:35:05.023Z,8614.00
2023-07-07T08:36:04.945Z,8757.00
2023-07-07T08:37:04.908Z,8910.00
2023-07-07T08:38:04.912Z,9037.00
2023-07-07T08:39:04.935Z,9179.00
2023-07-07T08:40:04.972Z,9252.00
2023-07-07T08:41:04.964Z,9371.00
2023-07-07T08:42:04.883Z,9446.00
2023-07-07T08:43:04.891Z,9477.00
2023-07-07T08:44:04.857Z,9502.00
2023-07-07T08:45:04.837Z,9547.00
2023-07-07T08:46:04.832Z,9604.00
2023-07-07T08:47:04.896Z,9628.00
2023-07-07T08:48:04.865Z,9683.00
2023-07-07T08:49:04.794Z,9789.00
2023-07-07T08:50:15.314Z,9804.00
2023-07-07T08:51:04.872Z,9927.00
2023-07-07T08:52:04.778Z,9876.00
2023-07-07T08:53:04.774Z,10006.00
2023-07-07T08:54:13.478Z,10030.00
2023-07-07T08:55:04.729Z,10081.00
2023-07-07T08:56:04.757Z,10177.00
2023-07-07T08:57:04.806Z,10146.00
2023-07-07T08:58:04.894Z,10152.00
2023-07-07T08:59:04.717Z,10268.00
2023-07-07T09:00:04.697Z,9892.00
2023-07-07T09:01:04.697Z,10078.00
2023-07-07T09:02:04.731Z,10057.00
2023-07-07T09:03:04.777Z,9974.00
2023-07-07T09:04:04.839Z,10091.00
2023-07-07T09:05:04.771Z,10074.00
2023-07-07T09:06:04.662Z,9995.00
2023-07-07T09:07:04.641Z,9934.00
2023-07-07T09:08:04.678Z,9647.00
2023-07-07T09:09:04.610Z,9316.00
2023-07-07T09:10:04.624Z,9011.00
2023-07-07T09:11:04.582Z,8599.00
2023-07-07T09:12:04.660Z,8296.00
2023-07-07T09:13:04.579Z,6959.00
2023-07-07T09:14:04.656Z,7021.00
2023-07-07T09:15:04.579Z,6320.00
2023-07-07T09:16:04.602Z,5678.00
2023-07-07T09:17:04.622Z,5077.00
2023-07-07T09:18:04.535Z,4463.00
2023-07-07T09:19:04.537Z,4203.00
2023-07-07T09:20:04.516Z,3298.00
2023-07-07T09:21:04.512Z,3728.00
2023-07-07T09:22:04.474Z,2279.00
2023-07-07T09:23:04.603Z,3604.00
2023-07-07T09:24:04.577Z,2894.00
2023-07-07T09:25:04.513Z,2203.00
2023-07-07T09:26:04.508Z,1728.00
2023-07-07T09:27:04.451Z,1575.00
2023-07-07T09:28:06.466Z,1679.00
2023-07-07T09:29:04.501Z,1222.00
2023-07-07T09:30:04.488Z,1490.00
2023-07-07T09:31:04.412Z,1581.00
2023-07-07T09:32:04.523Z,1449.00
2023-07-07T09:33:04.569Z,1453.00
2023-07-07T09:34:04.460Z,1547.00
2023-07-07T09:35:04.348Z,1144.00
2023-07-07T09:36:04.367Z,1151.00
2023-07-07T09:37:04.363Z,1388.00
2023-07-07T09:38:04.357Z,1030.00
2023-07-07T09:39:04.445Z,1240.00
2023-07-07T09:40:04.307Z,1181.00
2023-07-07T09:41:04.317Z,1509.00
2023-07-07T09:42:04.318Z,1833.00
2023-07-07T09:43:04.279Z,2018.00
2023-07-07T09:44:04.380Z,1949.00
2023-07-07T09:45:04.263Z,1878.00
2023-07-07T09:46:04.305Z,1726.00
2023-07-07T09:47:04.342Z,1721.00
2023-07-07T09:48:04.311Z,2106.00
2023-07-07T09:49:04.241Z,2225.00
2023-07-07T09:50:04.317Z,2014.00
2023-07-07T09:51:04.329Z,1708.00
2023-07-07T09:52:04.200Z,1677.00
2023-07-07T09:53:16.849Z,1638.00
2023-07-07T09:54:04.217Z,1631.00
2023-07-07T09:55:04.254Z,1655.00
2023-07-07T09:56:04.185Z,1655.00
2023-07-07T09:57:04.176Z,1647.00
2023-07-07T09:58:04.207Z,1608.00
2023-07-07T09:59:04.386Z,1612.00
2023-07-07T10:00:04.215Z,1658.00
2023-07-07T10:01:04.177Z,1763.00
2023-07-07T10:02:04.171Z,1897.00
2023-07-07T10:03:04.174Z,2155.00
2023-07-07T10:04:04.176Z,2500.00
2023-07-07T10:05:04.165Z,2685.00
2023-07-07T10:06:04.282Z,3448.00
2023-07-07T10:07:04.102Z,4649.00
2023-07-07T10:08:04.043Z,6018.00
2023-07-07T10:09:04.066Z,6454.00
2023-07-07T10:10:04.041Z,10062.00
2023-07-07T10:11:27.021Z,16684.00
2023-07-07T10:13:04.014Z,14386.00
2023-07-07T10:14:04.197Z,11786.00
2023-07-07T10:15:04.024Z,13085.00
2023-07-07T10:16:04.066Z,12561.00
2023-07-07T10:17:04.037Z,11884.00
2023-07-07T10:18:04.015Z,14590.00
2023-07-07T10:19:03.971Z,13635.00
2023-07-07T10:20:03.956Z,11514.00
2023-07-07T10:21:03.978Z,11145.00
2023-07-07T10:22:03.988Z,11498.00
2023-07-07T10:23:04.006Z,11443.00
2023-07-07T10:24:05.792Z,12215.00
2023-07-07T10:25:03.924Z,12695.00
2023-07-07T10:26:03.869Z,12621.00
2023-07-07T10:27:03.860Z,11254.00
2023-07-07T10:28:03.954Z,8123.00
2023-07-07T10:29:03.845Z,5161.00
2023-07-07T10:30:03.840Z,4823.00
2023-07-07T10:31:03.944Z,4908.00
2023-07-07T10:32:03.916Z,5065.00
2023-07-07T10:33:03.958Z,5097.00
2023-07-07T10:34:03.804Z,4847.00
2023-07-07T10:35:03.815Z,4528.00
2023-07-07T10:36:06.094Z,4112.00
2023-07-07T10:37:03.792Z,3198.00
2023-07-07T10:38:03.847Z,1972.00
2023-07-07T10:39:03.779Z,946.00
2023-07-07T10:40:03.759Z,3832.00
2023-07-07T10:41:03.831Z,20157.00
2023-07-07T10:42:03.725Z,14361.00
2023-07-07T10:43:03.777Z,4790.00
2023-07-07T10:44:03.808Z,654.00
2023-07-07T10:45:03.727Z,602.00
2023-07-07T10:46:03.810Z,595.00
2023-07-07T10:47:13.017Z,585.00
2023-07-07T10:48:05.413Z,583.00
2023-07-07T10:49:03.663Z,579.00
2023-07-07T10:50:03.649Z,573.00
2023-07-07T10:51:03.879Z,569.00
2023-07-07T10:52:03.749Z,563.00
2023-07-07T10:54:05.053Z,548.00
2023-07-07T10:55:03.583Z,545.00
2023-07-07T10:56:03.673Z,542.00
2023-07-07T10:57:03.645Z,535.00
2023-07-07T10:58:03.658Z,535.00
2023-07-07T10:59:03.554Z,530.00
2023-07-07T11:00:03.675Z,527.00
2023-07-07T11:01:03.940Z,526.00
2023-07-07T11:02:03.672Z,521.00
2023-07-07T11:03:04.877Z,518.00
2023-07-07T11:04:03.601Z,514.00
2023-07-07T11:05:03.526Z,512.00
2023-07-07T11:06:04.831Z,505.00
2023-07-07T11:07:03.486Z,500.00
2023-07-07T11:08:03.474Z,498.00
2023-07-07T11:09:03.471Z,497.00
2023-07-07T11:10:03.629Z,495.00
2023-07-07T11:11:03.574Z,493.00
2023-07-07T11:12:03.445Z,491.00
2023-07-07T11:13:03.506Z,486.00
2023-07-07T11:14:03.559Z,486.00
2023-07-07T11:15:03.404Z,485.00
2023-07-07T11:16:03.486Z,487.00
2023-07-07T11:17:03.515Z,487.00
2023-07-07T11:18:03.455Z,484.00
2023-07-07T11:19:03.426Z,483.00
2023-07-07T11:20:03.348Z,481.00
2023-07-07T11:21:03.367Z,477.00
2023-07-07T11:22:03.317Z,473.00
2023-07-07T11:23:03.417Z,472.00
2023-07-07T11:24:03.388Z,479.00
2023-07-07T11:25:03.327Z,477.00
2023-07-07T11:26:03.278Z,475.00
2023-07-07T11:27:03.275Z,472.00
2023-07-07T11:28:03.319Z,461.00
2023-07-07T11:29:03.331Z,458.00
2023-07-07T11:30:03.255Z,474.00
2023-07-07T11:31:03.323Z,468.00
2023-07-07T11:32:03.230Z,483.00
2023-07-07T11:33:03.295Z,474.00
2023-07-07T11:34:03.200Z,467.00
2023-07-07T11:35:03.268Z,451.00
2023-07-07T11:36:03.172Z,460.00
2023-07-07T11:37:03.155Z,451.00
2023-07-07T11:38:03.179Z,448.00
2023-07-07T11:39:03.176Z,446.00
2023-07-07T11:40:03.225Z,446.00
2023-07-07T11:41:03.191Z,450.00
2023-07-07T11:42:03.109Z,444.00
2023-07-07T11:43:03.145Z,440.00
2023-07-07T11:44:03.191Z,433.00
2023-07-07T11:45:03.086Z,424.00
2023-07-07T11:46:03.167Z,429.00
2023-07-07T11:47:03.153Z,428.00
2023-07-07T11:48:03.066Z,422.00
2023-07-07T11:49:03.042Z,423.00
2023-07-07T11:50:03.035Z,421.00
2023-07-07T11:51:03.180Z,419.00
2023-07-07T11:52:03.031Z,420.00
2023-07-07T11:53:03.019Z,417.00
2023-07-07T11:54:02.983Z,416.00
2023-07-07T11:55:02.963Z,416.00
2023-07-07T11:56:03.053Z,414.00
2023-07-07T11:57:02.953Z,407.00
2023-07-07T11:58:02.954Z,408.00
2023-07-07T11:59:02.928Z,409.00
2023-07-07T12:00:02.930Z,403.00
2023-07-07T12:01:02.935Z,399.00
2023-07-07T12:02:02.963Z,398.00
2023-07-07T12:03:03.059Z,397.00
2023-07-07T12:04:03.031Z,397.00
2023-07-07T12:05:03.127Z,398.00
2023-07-07T12:06:03.277Z,397.00
2023-07-07T12:07:02.940Z,392.00
2023-07-07T12:08:02.835Z,391.00
2023-07-07T12:09:02.838Z,389.00
2023-07-07T12:10:02.816Z,388.00
2023-07-07T12:11:02.811Z,383.00
2023-07-07T12:12:02.899Z,383.00
2023-07-07T12:13:02.799Z,382.00
2023-07-07T12:14:02.923Z,385.00
2023-07-07T12:15:04.077Z,382.00
2023-07-07T12:16:02.757Z,379.00
2023-07-07T12:17:02.789Z,373.00
2023-07-07T12:18:02.877Z,374.00
2023-07-07T12:19:02.751Z,377.00
2023-07-07T12:20:02.725Z,369.00
2023-07-07T12:21:02.742Z,368.00
2023-07-07T12:22:02.720Z,372.00
2023-07-07T12:23:02.779Z,366.00
2023-07-07T12:24:02.694Z,364.00
2023-07-07T12:25:02.774Z,359.00
2023-07-07T12:26:02.833Z,355.00
2023-07-07T12:27:02.682Z,360.00
2023-07-07T12:28:02.658Z,360.00
2023-07-07T12:29:02.721Z,357.00
2023-07-07T12:30:02.635Z,352.00
2023-07-07T12:31:02.654Z,352.00
2023-07-07T12:32:02.630Z,352.00
2023-07-07T12:33:02.709Z,355.00
2023-07-07T12:34:02.586Z,355.00
2023-07-07T12:35:02.616Z,352.00
2023-07-07T12:36:02.562Z,351.00